sensor_id;sensor_type;location;lat;lon;timestamp;P1;durP1;ratioP1;P2;durP2;ratioP2
79747;SDS011;69232;47.488;19.268;2023-11-21T00:00:51;37.90;;;17.90;;
79747;SDS011;69232;47.488;19.268;2023-11-21T00:03:16;39.13;;;17.90;;
79747;SDS011;69232;47.488;19.268;2023-11-21T00:05:42;47.65;;;17.85;;
79747;SDS011;69232;47.488;19.268;2023-11-21T00:08:08;33.03;;;16.30;;
79747;SDS011;69232;47.488;19.268;2023-11-21T00:10:34;35.40;;;15.15;;
79747;SDS011;69232;47.488;19.268;2023-11-21T00:13:00;31.95;;;15.15;;
79747;SDS011;69232;47.488;19.268;2023-11-21T00:15:27;29.35;;;15.13;;
79747;SDS011;69232;47.488;19.268;2023-11-21T00:17:52;33.90;;;16.30;;
79747;SDS011;69232;47.488;19.268;2023-11-21T00:20:18;34.03;;;14.93;;
79747;SDS011;69232;47.488;19.268;2023-11-21T00:22:43;30.08;;;15.60;;
79747;SDS011;69232;47.488;19.268;2023-11-21T00:25:08;29.58;;;15.05;;
79747;SDS011;69232;47.488;19.268;2023-11-21T00:27:35;29.33;;;13.77;;
79747;SDS011;69232;47.488;19.268;2023-11-21T00:30:01;29.48;;;14.73;;
79747;SDS011;69232;47.488;19.268;2023-11-21T00:32:26;39.00;;;17.67;;
79747;SDS011;69232;47.488;19.268;2023-11-21T00:34:52;32.90;;;17.00;;
79747;SDS011;69232;47.488;19.268;2023-11-21T00:37:17;35.42;;;18.15;;
79747;SDS011;69232;47.488;19.268;2023-11-21T00:39:42;38.92;;;19.17;;
79747;SDS011;69232;47.488;19.268;2023-11-21T00:42:08;43.75;;;19.02;;
79747;SDS011;69232;47.488;19.268;2023-11-21T00:44:37;36.08;;;17.58;;
79747;SDS011;69232;47.488;19.268;2023-11-21T00:47:03;35.35;;;17.25;;
79747;SDS011;69232;47.488;19.268;2023-11-21T00:49:28;34.58;;;17.15;;
79747;SDS011;69232;47.488;19.268;2023-11-21T00:51:54;32.58;;;17.02;;
79747;SDS011;69232;47.488;19.268;2023-11-21T00:54:19;35.25;;;17.50;;
79747;SDS011;69232;47.488;19.268;2023-11-21T00:56:45;37.28;;;16.98;;
79747;SDS011;69232;47.488;19.268;2023-11-21T00:59:12;40.75;;;17.73;;
79747;SDS011;69232;47.488;19.268;2023-11-21T01:01:38;33.75;;;17.80;;
79747;SDS011;69232;47.488;19.268;2023-11-21T01:04:03;61.38;;;21.55;;
79747;SDS011;69232;47.488;19.268;2023-11-21T01:06:28;55.30;;;20.25;;
79747;SDS011;69232;47.488;19.268;2023-11-21T01:08:55;41.83;;;19.33;;
79747;SDS011;69232;47.488;19.268;2023-11-21T01:11:20;35.03;;;16.10;;
79747;SDS011;69232;47.488;19.268;2023-11-21T01:13:46;32.42;;;15.63;;
79747;SDS011;69232;47.488;19.268;2023-11-21T01:16:11;37.75;;;15.43;;
79747;SDS011;69232;47.488;19.268;2023-11-21T01:18:37;30.08;;;14.30;;
79747;SDS011;69232;47.488;19.268;2023-11-21T01:21:02;51.78;;;22.10;;
79747;SDS011;69232;47.488;19.268;2023-11-21T01:23:28;56.60;;;19.83;;
79747;SDS011;69232;47.488;19.268;2023-11-21T01:25:55;35.03;;;16.73;;
79747;SDS011;69232;47.488;19.268;2023-11-21T01:28:21;48.28;;;17.38;;
79747;SDS011;69232;47.488;19.268;2023-11-21T01:30:47;46.95;;;17.67;;
79747;SDS011;69232;47.488;19.268;2023-11-21T01:33:13;92.57;;;26.85;;
79747;SDS011;69232;47.488;19.268;2023-11-21T01:35:40;55.80;;;21.40;;
79747;SDS011;69232;47.488;19.268;2023-11-21T01:38:06;48.05;;;17.17;;
79747;SDS011;69232;47.488;19.268;2023-11-21T01:40:33;26.67;;;13.10;;
79747;SDS011;69232;47.488;19.268;2023-11-21T01:42:59;29.63;;;13.60;;
79747;SDS011;69232;47.488;19.268;2023-11-21T01:45:25;25.00;;;12.55;;
79747;SDS011;69232;47.488;19.268;2023-11-21T01:47:50;28.70;;;12.40;;
79747;SDS011;69232;47.488;19.268;2023-11-21T01:50:16;30.33;;;13.63;;
79747;SDS011;69232;47.488;19.268;2023-11-21T01:52:43;27.95;;;12.48;;
79747;SDS011;69232;47.488;19.268;2023-11-21T01:55:10;22.23;;;11.73;;
79747;SDS011;69232;47.488;19.268;2023-11-21T01:57:37;23.63;;;12.07;;
79747;SDS011;69232;47.488;19.268;2023-11-21T02:00:03;23.20;;;11.70;;
79747;SDS011;69232;47.488;19.268;2023-11-21T02:02:46;30.23;;;13.40;;
79747;SDS011;69232;47.488;19.268;2023-11-21T02:05:16;31.48;;;15.77;;
79747;SDS011;69232;47.488;19.268;2023-11-21T02:07:46;33.15;;;14.88;;
79747;SDS011;69232;47.488;19.268;2023-11-21T02:10:17;27.05;;;14.32;;
79747;SDS011;69232;47.488;19.268;2023-11-21T02:12:47;30.15;;;16.13;;
79747;SDS011;69232;47.488;19.268;2023-11-21T02:15:16;34.50;;;16.88;;
79747;SDS011;69232;47.488;19.268;2023-11-21T02:17:48;41.05;;;17.85;;
79747;SDS011;69232;47.488;19.268;2023-11-21T02:20:19;39.03;;;17.35;;
79747;SDS011;69232;47.488;19.268;2023-11-21T02:22:55;43.13;;;18.52;;
79747;SDS011;69232;47.488;19.268;2023-11-21T02:25:28;51.22;;;18.77;;
79747;SDS011;69232;47.488;19.268;2023-11-21T02:27:54;49.40;;;17.55;;
79747;SDS011;69232;47.488;19.268;2023-11-21T02:30:21;41.95;;;18.33;;
79747;SDS011;69232;47.488;19.268;2023-11-21T02:32:47;48.25;;;17.98;;
79747;SDS011;69232;47.488;19.268;2023-11-21T02:35:13;59.13;;;19.35;;
79747;SDS011;69232;47.488;19.268;2023-11-21T02:37:40;39.47;;;17.45;;
79747;SDS011;69232;47.488;19.268;2023-11-21T02:40:08;41.90;;;16.85;;
79747;SDS011;69232;47.488;19.268;2023-11-21T02:42:34;38.63;;;17.65;;
79747;SDS011;69232;47.488;19.268;2023-11-21T02:45:00;38.22;;;17.73;;
79747;SDS011;69232;47.488;19.268;2023-11-21T02:47:25;34.85;;;16.02;;
79747;SDS011;69232;47.488;19.268;2023-11-21T02:49:51;39.75;;;16.23;;
79747;SDS011;69232;47.488;19.268;2023-11-21T02:52:17;37.33;;;16.85;;
79747;SDS011;69232;47.488;19.268;2023-11-21T02:54:44;34.97;;;14.80;;
79747;SDS011;69232;47.488;19.268;2023-11-21T02:57:09;45.55;;;16.60;;
79747;SDS011;69232;47.488;19.268;2023-11-21T02:59:35;32.90;;;15.63;;
79747;SDS011;69232;47.488;19.268;2023-11-21T03:02:00;34.10;;;15.32;;
79747;SDS011;69232;47.488;19.268;2023-11-21T03:04:26;36.35;;;14.45;;
79747;SDS011;69232;47.488;19.268;2023-11-21T03:06:51;33.75;;;15.85;;
79747;SDS011;69232;47.488;19.268;2023-11-21T03:09:16;29.80;;;13.45;;
79747;SDS011;69232;47.488;19.268;2023-11-21T03:11:42;30.30;;;13.88;;
79747;SDS011;69232;47.488;19.268;2023-11-21T03:14:07;37.30;;;15.35;;
79747;SDS011;69232;47.488;19.268;2023-11-21T03:16:33;28.98;;;13.95;;
79747;SDS011;69232;47.488;19.268;2023-11-21T03:18:58;30.00;;;13.68;;
79747;SDS011;69232;47.488;19.268;2023-11-21T03:21:24;33.72;;;15.07;;
79747;SDS011;69232;47.488;19.268;2023-11-21T03:23:51;36.33;;;15.85;;
79747;SDS011;69232;47.488;19.268;2023-11-21T03:26:17;38.90;;;15.50;;
79747;SDS011;69232;47.488;19.268;2023-11-21T03:28:43;35.63;;;14.95;;
79747;SDS011;69232;47.488;19.268;2023-11-21T03:31:08;35.80;;;15.13;;
79747;SDS011;69232;47.488;19.268;2023-11-21T03:33:34;31.20;;;14.40;;
79747;SDS011;69232;47.488;19.268;2023-11-21T03:36:00;35.05;;;14.52;;
79747;SDS011;69232;47.488;19.268;2023-11-21T03:38:25;32.33;;;14.38;;
79747;SDS011;69232;47.488;19.268;2023-11-21T03:40:51;30.02;;;15.13;;
79747;SDS011;69232;47.488;19.268;2023-11-21T03:43:16;28.88;;;14.75;;
79747;SDS011;69232;47.488;19.268;2023-11-21T03:45:42;28.05;;;13.93;;
79747;SDS011;69232;47.488;19.268;2023-11-21T03:48:07;28.70;;;14.05;;
79747;SDS011;69232;47.488;19.268;2023-11-21T03:50:33;28.77;;;14.05;;
79747;SDS011;69232;47.488;19.268;2023-11-21T03:52:59;28.65;;;13.95;;
79747;SDS011;69232;47.488;19.268;2023-11-21T03:55:25;30.50;;;12.93;;
79747;SDS011;69232;47.488;19.268;2023-11-21T03:57:50;31.42;;;14.88;;
79747;SDS011;69232;47.488;19.268;2023-11-21T04:00:16;30.42;;;13.63;;
79747;SDS011;69232;47.488;19.268;2023-11-21T04:02:42;31.80;;;14.02;;
79747;SDS011;69232;47.488;19.268;2023-11-21T04:05:08;26.20;;;13.13;;
79747;SDS011;69232;47.488;19.268;2023-11-21T04:07:34;26.63;;;13.68;;
79747;SDS011;69232;47.488;19.268;2023-11-21T04:10:00;27.77;;;13.05;;
79747;SDS011;69232;47.488;19.268;2023-11-21T04:12:25;24.23;;;12.27;;
79747;SDS011;69232;47.488;19.268;2023-11-21T04:14:51;24.75;;;13.90;;
79747;SDS011;69232;47.488;19.268;2023-11-21T04:17:19;29.05;;;14.18;;
79747;SDS011;69232;47.488;19.268;2023-11-21T04:19:45;27.30;;;13.45;;
79747;SDS011;69232;47.488;19.268;2023-11-21T04:22:11;26.27;;;12.85;;
79747;SDS011;69232;47.488;19.268;2023-11-21T04:24:37;26.70;;;12.73;;
79747;SDS011;69232;47.488;19.268;2023-11-21T04:27:02;34.42;;;14.38;;
79747;SDS011;69232;47.488;19.268;2023-11-21T04:29:27;30.10;;;13.35;;
79747;SDS011;69232;47.488;19.268;2023-11-21T04:31:53;39.80;;;14.32;;
79747;SDS011;69232;47.488;19.268;2023-11-21T04:34:18;29.98;;;14.35;;
79747;SDS011;69232;47.488;19.268;2023-11-21T04:36:44;29.05;;;13.93;;
79747;SDS011;69232;47.488;19.268;2023-11-21T04:39:09;31.05;;;14.90;;
79747;SDS011;69232;47.488;19.268;2023-11-21T04:41:35;48.22;;;19.73;;
79747;SDS011;69232;47.488;19.268;2023-11-21T04:44:01;36.78;;;17.30;;
79747;SDS011;69232;47.488;19.268;2023-11-21T04:46:27;34.60;;;15.77;;
79747;SDS011;69232;47.488;19.268;2023-11-21T04:48:52;28.48;;;14.43;;
79747;SDS011;69232;47.488;19.268;2023-11-21T04:51:17;31.13;;;14.48;;
79747;SDS011;69232;47.488;19.268;2023-11-21T04:53:43;25.55;;;13.40;;
79747;SDS011;69232;47.488;19.268;2023-11-21T04:56:08;28.95;;;13.32;;
79747;SDS011;69232;47.488;19.268;2023-11-21T04:58:34;39.10;;;17.33;;
79747;SDS011;69232;47.488;19.268;2023-11-21T05:01:00;54.67;;;20.27;;
79747;SDS011;69232;47.488;19.268;2023-11-21T05:03:25;38.60;;;16.67;;
79747;SDS011;69232;47.488;19.268;2023-11-21T05:05:51;34.35;;;14.98;;
79747;SDS011;69232;47.488;19.268;2023-11-21T05:08:16;29.10;;;14.98;;
79747;SDS011;69232;47.488;19.268;2023-11-21T05:10:42;46.67;;;17.95;;
79747;SDS011;69232;47.488;19.268;2023-11-21T05:13:07;47.83;;;18.92;;
79747;SDS011;69232;47.488;19.268;2023-11-21T05:15:36;44.22;;;17.10;;
79747;SDS011;69232;47.488;19.268;2023-11-21T05:18:02;51.88;;;20.20;;
79747;SDS011;69232;47.488;19.268;2023-11-21T05:20:28;51.17;;;20.08;;
79747;SDS011;69232;47.488;19.268;2023-11-21T05:22:53;57.78;;;19.65;;
79747;SDS011;69232;47.488;19.268;2023-11-21T05:25:19;57.03;;;17.95;;
79747;SDS011;69232;47.488;19.268;2023-11-21T05:27:45;52.47;;;16.98;;
79747;SDS011;69232;47.488;19.268;2023-11-21T05:30:11;37.72;;;16.80;;
79747;SDS011;69232;47.488;19.268;2023-11-21T05:32:37;43.97;;;17.52;;
79747;SDS011;69232;47.488;19.268;2023-11-21T05:35:03;41.33;;;16.08;;
79747;SDS011;69232;47.488;19.268;2023-11-21T05:39:59;34.00;;;14.07;;
79747;SDS011;69232;47.488;19.268;2023-11-21T05:42:29;40.47;;;15.70;;
79747;SDS011;69232;47.488;19.268;2023-11-21T05:44:56;39.25;;;16.70;;
79747;SDS011;69232;47.488;19.268;2023-11-21T05:47:24;61.97;;;24.98;;
79747;SDS011;69232;47.488;19.268;2023-11-21T05:49:51;48.60;;;22.02;;
79747;SDS011;69232;47.488;19.268;2023-11-21T05:52:17;50.15;;;19.75;;
79747;SDS011;69232;47.488;19.268;2023-11-21T05:54:43;45.22;;;20.50;;
79747;SDS011;69232;47.488;19.268;2023-11-21T05:57:08;48.00;;;18.23;;
79747;SDS011;69232;47.488;19.268;2023-11-21T05:59:34;44.75;;;18.33;;
79747;SDS011;69232;47.488;19.268;2023-11-21T06:01:59;39.17;;;18.63;;
79747;SDS011;69232;47.488;19.268;2023-11-21T06:04:25;37.38;;;19.08;;
79747;SDS011;69232;47.488;19.268;2023-11-21T06:06:51;44.42;;;20.98;;
79747;SDS011;69232;47.488;19.268;2023-11-21T06:09:17;63.30;;;26.02;;
79747;SDS011;69232;47.488;19.268;2023-11-21T06:11:43;66.40;;;26.67;;
79747;SDS011;69232;47.488;19.268;2023-11-21T06:14:08;57.22;;;24.75;;
79747;SDS011;69232;47.488;19.268;2023-11-21T06:16:34;59.33;;;24.30;;
79747;SDS011;69232;47.488;19.268;2023-11-21T06:19:00;51.80;;;22.63;;
79747;SDS011;69232;47.488;19.268;2023-11-21T06:21:26;52.63;;;22.02;;
79747;SDS011;69232;47.488;19.268;2023-11-21T06:23:51;57.17;;;22.92;;
79747;SDS011;69232;47.488;19.268;2023-11-21T06:26:18;61.22;;;23.38;;
79747;SDS011;69232;47.488;19.268;2023-11-21T06:28:43;47.33;;;21.70;;
79747;SDS011;69232;47.488;19.268;2023-11-21T06:31:09;52.35;;;22.50;;
79747;SDS011;69232;47.488;19.268;2023-11-21T06:33:35;45.95;;;20.23;;
79747;SDS011;69232;47.488;19.268;2023-11-21T06:36:01;41.85;;;18.10;;
79747;SDS011;69232;47.488;19.268;2023-11-21T06:38:30;39.85;;;18.92;;
79747;SDS011;69232;47.488;19.268;2023-11-21T06:40:57;40.47;;;19.25;;
79747;SDS011;69232;47.488;19.268;2023-11-21T06:43:23;38.72;;;17.25;;
79747;SDS011;69232;47.488;19.268;2023-11-21T06:45:48;41.72;;;17.33;;
79747;SDS011;69232;47.488;19.268;2023-11-21T06:48:14;38.13;;;18.23;;
79747;SDS011;69232;47.488;19.268;2023-11-21T06:50:40;45.45;;;19.70;;
79747;SDS011;69232;47.488;19.268;2023-11-21T06:53:05;37.47;;;17.02;;
79747;SDS011;69232;47.488;19.268;2023-11-21T06:55:32;38.25;;;16.65;;
79747;SDS011;69232;47.488;19.268;2023-11-21T06:57:58;32.38;;;16.23;;
79747;SDS011;69232;47.488;19.268;2023-11-21T07:00:25;47.13;;;19.80;;
79747;SDS011;69232;47.488;19.268;2023-11-21T07:02:53;62.05;;;23.17;;
79747;SDS011;69232;47.488;19.268;2023-11-21T07:05:19;50.65;;;20.92;;
79747;SDS011;69232;47.488;19.268;2023-11-21T07:07:46;44.78;;;20.35;;
79747;SDS011;69232;47.488;19.268;2023-11-21T07:10:13;37.55;;;18.00;;
79747;SDS011;69232;47.488;19.268;2023-11-21T07:12:39;40.75;;;18.42;;
79747;SDS011;69232;47.488;19.268;2023-11-21T07:15:05;42.47;;;19.70;;
79747;SDS011;69232;47.488;19.268;2023-11-21T07:17:34;41.78;;;18.42;;
79747;SDS011;69232;47.488;19.268;2023-11-21T07:20:00;42.70;;;18.35;;
79747;SDS011;69232;47.488;19.268;2023-11-21T07:22:26;41.88;;;17.17;;
79747;SDS011;69232;47.488;19.268;2023-11-21T07:24:52;34.30;;;18.52;;
79747;SDS011;69232;47.488;19.268;2023-11-21T07:27:17;38.65;;;18.48;;
79747;SDS011;69232;47.488;19.268;2023-11-21T07:29:43;50.10;;;19.88;;
79747;SDS011;69232;47.488;19.268;2023-11-21T07:32:08;48.53;;;20.33;;
79747;SDS011;69232;47.488;19.268;2023-11-21T07:34:38;41.78;;;19.92;;
79747;SDS011;69232;47.488;19.268;2023-11-21T07:37:03;48.55;;;21.30;;
79747;SDS011;69232;47.488;19.268;2023-11-21T07:39:29;41.78;;;19.17;;
79747;SDS011;69232;47.488;19.268;2023-11-21T07:41:55;49.08;;;21.08;;
79747;SDS011;69232;47.488;19.268;2023-11-21T07:44:21;38.55;;;18.80;;
79747;SDS011;69232;47.488;19.268;2023-11-21T07:46:46;40.78;;;17.85;;
79747;SDS011;69232;47.488;19.268;2023-11-21T07:49:12;48.22;;;20.85;;
79747;SDS011;69232;47.488;19.268;2023-11-21T07:51:42;43.40;;;19.90;;
79747;SDS011;69232;47.488;19.268;2023-11-21T07:54:08;38.35;;;19.20;;
79747;SDS011;69232;47.488;19.268;2023-11-21T07:56:35;41.58;;;18.95;;
79747;SDS011;69232;47.488;19.268;2023-11-21T07:59:00;38.33;;;19.15;;
79747;SDS011;69232;47.488;19.268;2023-11-21T08:01:25;51.47;;;22.27;;
79747;SDS011;69232;47.488;19.268;2023-11-21T08:03:53;46.20;;;21.38;;
79747;SDS011;69232;47.488;19.268;2023-11-21T08:06:22;55.35;;;22.20;;
79747;SDS011;69232;47.488;19.268;2023-11-21T08:08:48;41.40;;;21.83;;
79747;SDS011;69232;47.488;19.268;2023-11-21T08:11:14;50.30;;;23.15;;
79747;SDS011;69232;47.488;19.268;2023-11-21T08:13:39;53.70;;;24.52;;
79747;SDS011;69232;47.488;19.268;2023-11-21T08:16:05;57.70;;;25.83;;
79747;SDS011;69232;47.488;19.268;2023-11-21T08:18:32;66.15;;;25.63;;
79747;SDS011;69232;47.488;19.268;2023-11-21T08:20:59;73.55;;;28.02;;
79747;SDS011;69232;47.488;19.268;2023-11-21T08:23:24;67.30;;;26.98;;
79747;SDS011;69232;47.488;19.268;2023-11-21T08:25:53;61.53;;;26.02;;
79747;SDS011;69232;47.488;19.268;2023-11-21T08:28:19;70.78;;;30.60;;
79747;SDS011;69232;47.488;19.268;2023-11-21T08:30:47;58.80;;;27.63;;
79747;SDS011;69232;47.488;19.268;2023-11-21T08:33:12;66.80;;;29.17;;
79747;SDS011;69232;47.488;19.268;2023-11-21T08:35:38;65.30;;;29.20;;
79747;SDS011;69232;47.488;19.268;2023-11-21T08:38:03;62.63;;;28.60;;
79747;SDS011;69232;47.488;19.268;2023-11-21T08:40:29;65.97;;;28.45;;
79747;SDS011;69232;47.488;19.268;2023-11-21T08:42:55;56.58;;;27.45;;
79747;SDS011;69232;47.488;19.268;2023-11-21T08:45:21;62.55;;;27.60;;
79747;SDS011;69232;47.488;19.268;2023-11-21T08:47:47;56.85;;;24.30;;
79747;SDS011;69232;47.488;19.268;2023-11-21T08:50:13;60.50;;;25.08;;
79747;SDS011;69232;47.488;19.268;2023-11-21T08:52:39;56.92;;;25.98;;
79747;SDS011;69232;47.488;19.268;2023-11-21T08:55:05;61.33;;;26.65;;
79747;SDS011;69232;47.488;19.268;2023-11-21T08:57:37;61.10;;;27.55;;
79747;SDS011;69232;47.488;19.268;2023-11-21T09:00:04;67.70;;;29.52;;
79747;SDS011;69232;47.488;19.268;2023-11-21T09:02:38;72.10;;;27.48;;
79747;SDS011;69232;47.488;19.268;2023-11-21T09:05:06;67.45;;;30.15;;
79747;SDS011;69232;47.488;19.268;2023-11-21T09:07:36;68.40;;;30.25;;
79747;SDS011;69232;47.488;19.268;2023-11-21T09:10:02;63.47;;;26.40;;
79747;SDS011;69232;47.488;19.268;2023-11-21T09:12:28;48.10;;;22.65;;
79747;SDS011;69232;47.488;19.268;2023-11-21T09:14:53;47.85;;;22.98;;
79747;SDS011;69232;47.488;19.268;2023-11-21T09:17:19;48.67;;;21.73;;
79747;SDS011;69232;47.488;19.268;2023-11-21T09:19:44;37.55;;;20.00;;
79747;SDS011;69232;47.488;19.268;2023-11-21T09:22:14;84.45;;;27.15;;
79747;SDS011;69232;47.488;19.268;2023-11-21T09:24:40;42.05;;;19.80;;
79747;SDS011;69232;47.488;19.268;2023-11-21T09:27:05;43.70;;;19.80;;
79747;SDS011;69232;47.488;19.268;2023-11-21T09:29:31;48.25;;;20.83;;
79747;SDS011;69232;47.488;19.268;2023-11-21T09:31:57;40.85;;;19.10;;
79747;SDS011;69232;47.488;19.268;2023-11-21T09:34:24;39.88;;;19.00;;
79747;SDS011;69232;47.488;19.268;2023-11-21T09:36:50;35.83;;;19.95;;
79747;SDS011;69232;47.488;19.268;2023-11-21T09:39:16;37.47;;;18.98;;
79747;SDS011;69232;47.488;19.268;2023-11-21T09:41:43;52.67;;;23.38;;
79747;SDS011;69232;47.488;19.268;2023-11-21T09:44:13;50.35;;;21.98;;
79747;SDS011;69232;47.488;19.268;2023-11-21T09:46:42;60.33;;;24.90;;
79747;SDS011;69232;47.488;19.268;2023-11-21T09:49:11;52.38;;;22.38;;
79747;SDS011;69232;47.488;19.268;2023-11-21T09:51:41;43.78;;;20.73;;
79747;SDS011;69232;47.488;19.268;2023-11-21T09:54:08;45.10;;;21.10;;
79747;SDS011;69232;47.488;19.268;2023-11-21T09:56:35;43.03;;;20.13;;
79747;SDS011;69232;47.488;19.268;2023-11-21T09:59:02;42.65;;;21.20;;
79747;SDS011;69232;47.488;19.268;2023-11-21T10:01:35;45.20;;;21.77;;
79747;SDS011;69232;47.488;19.268;2023-11-21T10:04:02;41.97;;;20.33;;
79747;SDS011;69232;47.488;19.268;2023-11-21T10:06:28;37.13;;;18.52;;
79747;SDS011;69232;47.488;19.268;2023-11-21T10:08:54;50.58;;;21.30;;
79747;SDS011;69232;47.488;19.268;2023-11-21T10:11:23;55.25;;;22.75;;
79747;SDS011;69232;47.488;19.268;2023-11-21T10:13:52;51.63;;;20.33;;
79747;SDS011;69232;47.488;19.268;2023-11-21T10:16:19;42.53;;;19.88;;
79747;SDS011;69232;47.488;19.268;2023-11-21T10:18:46;46.22;;;20.63;;
79747;SDS011;69232;47.488;19.268;2023-11-21T10:21:13;48.47;;;22.38;;
79747;SDS011;69232;47.488;19.268;2023-11-21T10:23:39;41.47;;;20.80;;
79747;SDS011;69232;47.488;19.268;2023-11-21T10:26:04;37.70;;;20.98;;
79747;SDS011;69232;47.488;19.268;2023-11-21T10:28:35;39.47;;;20.23;;
79747;SDS011;69232;47.488;19.268;2023-11-21T10:31:02;43.92;;;20.92;;
79747;SDS011;69232;47.488;19.268;2023-11-21T10:33:28;40.30;;;19.73;;
79747;SDS011;69232;47.488;19.268;2023-11-21T10:35:56;35.95;;;18.95;;
79747;SDS011;69232;47.488;19.268;2023-11-21T10:38:21;36.72;;;18.38;;
79747;SDS011;69232;47.488;19.268;2023-11-21T10:40:49;36.15;;;18.65;;
79747;SDS011;69232;47.488;19.268;2023-11-21T10:43:15;62.50;;;25.73;;
79747;SDS011;69232;47.488;19.268;2023-11-21T10:45:41;57.33;;;25.55;;
79747;SDS011;69232;47.488;19.268;2023-11-21T10:48:10;62.80;;;28.88;;
79747;SDS011;69232;47.488;19.268;2023-11-21T10:50:41;64.75;;;29.42;;
79747;SDS011;69232;47.488;19.268;2023-11-21T10:53:06;56.05;;;27.50;;
79747;SDS011;69232;47.488;19.268;2023-11-21T10:55:33;53.10;;;24.58;;
79747;SDS011;69232;47.488;19.268;2023-11-21T10:58:00;51.15;;;24.98;;
79747;SDS011;69232;47.488;19.268;2023-11-21T11:00:30;47.22;;;22.52;;
79747;SDS011;69232;47.488;19.268;2023-11-21T11:02:56;40.85;;;19.85;;
79747;SDS011;69232;47.488;19.268;2023-11-21T11:05:24;49.38;;;21.15;;
79747;SDS011;69232;47.488;19.268;2023-11-21T11:08:08;43.15;;;19.30;;
79747;SDS011;69232;47.488;19.268;2023-11-21T11:10:34;29.80;;;15.68;;
79747;SDS011;69232;47.488;19.268;2023-11-21T11:13:01;28.15;;;15.10;;
79747;SDS011;69232;47.488;19.268;2023-11-21T11:15:27;33.38;;;14.93;;
79747;SDS011;69232;47.488;19.268;2023-11-21T11:17:53;25.92;;;12.32;;
79747;SDS011;69232;47.488;19.268;2023-11-21T11:20:22;25.77;;;11.85;;
79747;SDS011;69232;47.488;19.268;2023-11-21T11:25:35;20.48;;;11.25;;
79747;SDS011;69232;47.488;19.268;2023-11-21T11:28:10;21.63;;;11.10;;
79747;SDS011;69232;47.488;19.268;2023-11-21T11:36:47;29.10;;;10.07;;
79747;SDS011;69232;47.488;19.268;2023-11-21T11:38:55;21.98;;;9.45;;
79747;SDS011;69232;47.488;19.268;2023-11-21T11:41:25;19.73;;;9.85;;
79747;SDS011;69232;47.488;19.268;2023-11-21T11:46:18;15.82;;;8.90;;
79747;SDS011;69232;47.488;19.268;2023-11-21T11:48:46;19.73;;;9.30;;
79747;SDS011;69232;47.488;19.268;2023-11-21T11:51:14;18.60;;;10.23;;
79747;SDS011;69232;47.488;19.268;2023-11-21T11:53:42;25.05;;;10.35;;
79747;SDS011;69232;47.488;19.268;2023-11-21T11:56:30;17.33;;;10.32;;
79747;SDS011;69232;47.488;19.268;2023-11-21T11:58:57;21.10;;;10.38;;
79747;SDS011;69232;47.488;19.268;2023-11-21T12:01:27;19.13;;;10.30;;
79747;SDS011;69232;47.488;19.268;2023-11-21T12:06:39;21.92;;;11.13;;
79747;SDS011;69232;47.488;19.268;2023-11-21T12:09:06;26.63;;;11.13;;
79747;SDS011;69232;47.488;19.268;2023-11-21T12:11:31;23.00;;;10.52;;
79747;SDS011;69232;47.488;19.268;2023-11-21T12:13:58;20.65;;;11.20;;
79747;SDS011;69232;47.488;19.268;2023-11-21T12:16:24;19.20;;;10.45;;
79747;SDS011;69232;47.488;19.268;2023-11-21T12:18:52;24.95;;;9.95;;
79747;SDS011;69232;47.488;19.268;2023-11-21T12:21:19;23.85;;;11.07;;
79747;SDS011;69232;47.488;19.268;2023-11-21T12:23:45;24.83;;;10.70;;
79747;SDS011;69232;47.488;19.268;2023-11-21T12:26:12;25.75;;;11.57;;
79747;SDS011;69232;47.488;19.268;2023-11-21T12:28:38;22.30;;;11.02;;
79747;SDS011;69232;47.488;19.268;2023-11-21T12:31:04;29.80;;;10.32;;
79747;SDS011;69232;47.488;19.268;2023-11-21T12:33:31;26.67;;;11.27;;
79747;SDS011;69232;47.488;19.268;2023-11-21T12:36:00;25.35;;;12.32;;
79747;SDS011;69232;47.488;19.268;2023-11-21T12:38:25;24.20;;;12.25;;
79747;SDS011;69232;47.488;19.268;2023-11-21T12:40:59;24.42;;;11.10;;
79747;SDS011;69232;47.488;19.268;2023-11-21T12:43:25;23.27;;;11.55;;
79747;SDS011;69232;47.488;19.268;2023-11-21T12:45:50;27.35;;;11.35;;
79747;SDS011;69232;47.488;19.268;2023-11-21T12:48:17;40.42;;;12.52;;
79747;SDS011;69232;47.488;19.268;2023-11-21T12:50:49;24.20;;;10.57;;
79747;SDS011;69232;47.488;19.268;2023-11-21T12:53:18;25.67;;;11.75;;
79747;SDS011;69232;47.488;19.268;2023-11-21T12:55:43;33.05;;;12.45;;
79747;SDS011;69232;47.488;19.268;2023-11-21T12:58:15;22.58;;;11.68;;
79747;SDS011;69232;47.488;19.268;2023-11-21T13:00:44;25.13;;;10.88;;
79747;SDS011;69232;47.488;19.268;2023-11-21T13:03:11;25.55;;;11.48;;
79747;SDS011;69232;47.488;19.268;2023-11-21T13:05:40;23.38;;;11.50;;
79747;SDS011;69232;47.488;19.268;2023-11-21T13:08:16;20.58;;;10.63;;
79747;SDS011;69232;47.488;19.268;2023-11-21T13:10:45;22.13;;;10.30;;
79747;SDS011;69232;47.488;19.268;2023-11-21T13:13:12;23.55;;;12.00;;
79747;SDS011;69232;47.488;19.268;2023-11-21T13:15:49;24.15;;;11.93;;
79747;SDS011;69232;47.488;19.268;2023-11-21T13:18:15;19.27;;;11.65;;
79747;SDS011;69232;47.488;19.268;2023-11-21T13:20:42;30.23;;;11.85;;
79747;SDS011;69232;47.488;19.268;2023-11-21T13:23:08;22.90;;;12.13;;
79747;SDS011;69232;47.488;19.268;2023-11-21T13:25:36;22.33;;;10.50;;
79747;SDS011;69232;47.488;19.268;2023-11-21T13:28:04;20.38;;;10.63;;
79747;SDS011;69232;47.488;19.268;2023-11-21T13:30:30;25.70;;;12.05;;
79747;SDS011;69232;47.488;19.268;2023-11-21T13:33:01;21.50;;;11.73;;
79747;SDS011;69232;47.488;19.268;2023-11-21T13:35:30;29.13;;;12.00;;
79747;SDS011;69232;47.488;19.268;2023-11-21T13:38:03;29.48;;;10.32;;
79747;SDS011;69232;47.488;19.268;2023-11-21T13:40:30;21.33;;;11.45;;
79747;SDS011;69232;47.488;19.268;2023-11-21T13:42:56;21.83;;;10.70;;
79747;SDS011;69232;47.488;19.268;2023-11-21T13:45:25;27.25;;;11.57;;
79747;SDS011;69232;47.488;19.268;2023-11-21T13:47:52;22.75;;;11.30;;
79747;SDS011;69232;47.488;19.268;2023-11-21T13:50:22;22.45;;;12.80;;
79747;SDS011;69232;47.488;19.268;2023-11-21T13:52:54;24.73;;;11.10;;
79747;SDS011;69232;47.488;19.268;2023-11-21T13:55:19;24.23;;;12.52;;
79747;SDS011;69232;47.488;19.268;2023-11-21T13:57:46;26.80;;;11.70;;
79747;SDS011;69232;47.488;19.268;2023-11-21T14:00:16;24.00;;;11.50;;
79747;SDS011;69232;47.488;19.268;2023-11-21T14:03:14;23.63;;;10.77;;
79747;SDS011;69232;47.488;19.268;2023-11-21T14:05:46;27.38;;;12.20;;
79747;SDS011;69232;47.488;19.268;2023-11-21T14:08:16;23.58;;;11.73;;
79747;SDS011;69232;47.488;19.268;2023-11-21T14:10:46;25.17;;;11.80;;
79747;SDS011;69232;47.488;19.268;2023-11-21T14:13:18;25.58;;;12.68;;
79747;SDS011;69232;47.488;19.268;2023-11-21T14:15:45;30.45;;;12.85;;
79747;SDS011;69232;47.488;19.268;2023-11-21T14:18:12;33.15;;;13.48;;
79747;SDS011;69232;47.488;19.268;2023-11-21T14:20:40;28.10;;;13.50;;
79747;SDS011;69232;47.488;19.268;2023-11-21T14:23:07;34.65;;;13.90;;